createdAt,value
2019-03-31T00:01:14.568Z,36.36
2019-03-31T00:03:43.073Z,36.64
2019-03-31T00:06:11.547Z,35.97
2019-03-31T00:08:40.135Z,35.79
2019-03-31T00:11:08.557Z,36.52
2019-03-31T00:13:36.980Z,36.71
2019-03-31T00:16:05.444Z,36.28
2019-03-31T00:18:33.901Z,36.26
2019-03-31T00:21:02.377Z,36.75
2019-03-31T00:23:30.816Z,36.74
2019-03-31T00:25:59.242Z,36.28
2019-03-31T00:28:27.708Z,36.40
2019-03-31T00:30:56.620Z,36.33
2019-03-31T00:33:25.142Z,36.02
2019-03-31T00:35:53.612Z,36.31
2019-03-31T00:38:22.049Z,35.94
2019-03-31T00:40:50.467Z,36.08
2019-03-31T00:43:18.891Z,36.37
2019-03-31T00:45:47.388Z,36.53
2019-03-31T00:48:15.836Z,35.80
2019-03-31T00:50:44.265Z,36.53
2019-03-31T00:53:12.748Z,36.27
2019-03-31T00:55:41.223Z,36.18
2019-03-31T00:58:09.645Z,36.75
2019-03-31T01:00:56.182Z,36.71
2019-03-31T01:03:25.109Z,36.67
2019-03-31T01:05:53.550Z,36.58
2019-03-31T01:08:21.993Z,36.68
2019-03-31T01:10:50.508Z,36.49
2019-03-31T01:13:18.990Z,36.34
2019-03-31T01:15:47.399Z,36.78
2019-03-31T01:18:16.101Z,36.62
2019-03-31T01:20:45.028Z,36.54
2019-03-31T01:23:13.503Z,36.67
2019-03-31T01:25:41.957Z,36.60
2019-03-31T01:28:10.501Z,35.94
2019-03-31T01:30:38.947Z,36.34
2019-03-31T01:33:07.398Z,36.68
2019-03-31T01:35:35.856Z,36.34
2019-03-31T01:38:04.282Z,36.77
2019-03-31T01:40:32.739Z,36.10
2019-03-31T01:43:01.139Z,36.52
2019-03-31T01:45:29.556Z,36.86
2019-03-31T01:47:58.009Z,36.32
2019-03-31T01:50:27.203Z,36.62
2019-03-31T01:52:55.669Z,36.12
2019-03-31T01:55:24.085Z,36.72
2019-03-31T01:57:52.509Z,35.90
2019-03-31T02:00:46.028Z,36.73
2019-03-31T02:03:14.443Z,36.61
2019-03-31T02:05:42.908Z,36.75
2019-03-31T02:08:11.386Z,36.25
2019-03-31T02:10:39.804Z,36.89
2019-03-31T02:13:08.293Z,35.97
2019-03-31T02:15:36.727Z,36.72
2019-03-31T02:18:05.330Z,36.46
2019-03-31T02:20:33.760Z,35.38
2019-03-31T02:23:02.201Z,36.34
2019-03-31T02:25:30.670Z,36.35
2019-03-31T02:27:59.093Z,36.67
2019-03-31T02:30:27.545Z,35.28
2019-03-31T02:32:56.000Z,35.63
2019-03-31T02:35:24.410Z,36.68
2019-03-31T02:37:52.833Z,37.00
2019-03-31T02:40:21.307Z,36.71
2019-03-31T02:42:49.765Z,36.87
2019-03-31T02:45:18.210Z,35.67
2019-03-31T02:47:46.645Z,36.83
2019-03-31T02:50:17.247Z,36.94
2019-03-31T02:52:45.711Z,36.91
2019-03-31T02:55:14.123Z,36.95
2019-03-31T02:57:42.550Z,36.89
2019-03-31T03:00:10.999Z,36.36
2019-03-31T03:02:42.250Z,36.45
2019-03-31T03:05:19.612Z,36.63
2019-03-31T03:07:39.678Z,36.69
2019-03-31T03:10:08.083Z,36.12
2019-03-31T03:12:36.536Z,36.64
2019-03-31T03:15:04.984Z,36.53
2019-03-31T03:17:33.384Z,36.81
2019-03-31T03:20:01.827Z,36.59
2019-03-31T03:22:30.234Z,36.27
2019-03-31T03:24:58.743Z,36.33
2019-03-31T03:27:27.205Z,36.15
2019-03-31T03:29:55.654Z,35.33
2019-03-31T03:32:24.121Z,36.62
2019-03-31T03:34:52.532Z,36.65
2019-03-31T03:37:21.019Z,36.21
2019-03-31T03:39:49.594Z,36.54
2019-03-31T03:42:18.072Z,35.13
2019-03-31T03:44:46.519Z,36.55
2019-03-31T03:47:15.033Z,36.58
2019-03-31T03:49:43.461Z,35.64
2019-03-31T03:52:11.994Z,36.68
2019-03-31T03:54:40.487Z,35.69
2019-03-31T03:57:09.001Z,36.79
2019-03-31T03:59:37.428Z,37.02
2019-03-31T04:02:05.843Z,35.64
2019-03-31T04:04:34.275Z,36.97
2019-03-31T04:07:02.949Z,36.82
2019-03-31T04:09:31.425Z,36.79
2019-03-31T04:11:59.861Z,37.00
2019-03-31T04:14:28.307Z,36.66
2019-03-31T04:16:56.739Z,36.88
2019-03-31T04:19:25.184Z,36.08
2019-03-31T04:21:53.612Z,35.06
2019-03-31T04:24:22.061Z,36.66
2019-03-31T04:26:50.495Z,36.83
2019-03-31T04:29:18.919Z,36.83
2019-03-31T04:31:47.368Z,36.90
2019-03-31T04:34:15.822Z,36.54
2019-03-31T04:36:44.262Z,36.43
2019-03-31T04:39:12.668Z,36.79
2019-03-31T04:41:41.100Z,35.94
2019-03-31T04:44:09.625Z,36.96
2019-03-31T04:46:38.108Z,36.56
2019-03-31T04:49:06.620Z,36.04
2019-03-31T04:51:35.128Z,36.96
2019-03-31T04:54:03.578Z,36.89
2019-03-31T04:56:32.016Z,37.03
2019-03-31T04:59:00.454Z,36.37
2019-03-31T05:01:28.844Z,37.06
2019-03-31T05:04:04.722Z,36.67
2019-03-31T05:06:27.484Z,36.77
2019-03-31T05:08:55.949Z,36.67
2019-03-31T05:11:24.376Z,36.96
2019-03-31T05:13:52.855Z,36.62
2019-03-31T05:16:21.391Z,37.08
2019-03-31T05:18:49.840Z,36.72
2019-03-31T05:21:18.252Z,36.96
2019-03-31T05:23:46.659Z,36.83
2019-03-31T05:26:15.066Z,36.85
2019-03-31T05:28:44.253Z,36.86
2019-03-31T05:31:12.845Z,35.98
2019-03-31T05:33:41.279Z,37.14
2019-03-31T05:36:09.696Z,35.61
2019-03-31T05:38:38.137Z,36.92
2019-03-31T05:41:06.567Z,36.71
2019-03-31T05:43:35.061Z,37.02
2019-03-31T05:46:03.523Z,36.71
2019-03-31T05:48:31.932Z,37.03
2019-03-31T05:51:00.421Z,36.92
2019-03-31T05:53:28.833Z,37.05
2019-03-31T05:55:57.296Z,36.82
2019-03-31T05:58:25.749Z,36.46
2019-03-31T06:00:54.298Z,36.07
2019-03-31T06:03:23.150Z,36.86
2019-03-31T06:05:51.664Z,37.05
2019-03-31T06:08:20.109Z,36.73
2019-03-31T06:10:48.664Z,36.84
2019-03-31T06:13:17.257Z,36.40
2019-03-31T06:15:45.684Z,36.94
2019-03-31T06:18:14.107Z,37.04
2019-03-31T06:20:42.804Z,37.22
2019-03-31T06:23:11.336Z,37.04
2019-03-31T06:25:39.797Z,36.51
2019-03-31T06:28:08.287Z,36.81
2019-03-31T06:30:36.714Z,36.94
2019-03-31T06:33:05.166Z,35.60
2019-03-31T06:35:33.645Z,36.71
2019-03-31T06:38:02.096Z,35.81
2019-03-31T06:40:30.654Z,36.71
2019-03-31T06:43:00.015Z,36.60
2019-03-31T06:45:28.571Z,35.97
2019-03-31T06:47:57.112Z,35.44
2019-03-31T06:50:25.762Z,35.99
2019-03-31T06:52:54.224Z,36.20
2019-03-31T06:55:22.749Z,36.90
2019-03-31T06:57:51.345Z,36.30
2019-03-31T07:00:19.839Z,36.07
2019-03-31T07:02:48.353Z,36.19
2019-03-31T07:05:16.827Z,36.43
2019-03-31T07:07:45.304Z,36.44
2019-03-31T07:10:13.814Z,36.51
2019-03-31T07:12:42.311Z,36.71
2019-03-31T07:15:10.840Z,36.67
2019-03-31T07:17:39.273Z,35.52
2019-03-31T07:20:08.349Z,35.47
2019-03-31T07:22:36.812Z,36.58
2019-03-31T07:25:06.989Z,36.68
2019-03-31T07:27:35.584Z,36.61
2019-03-31T07:30:07.104Z,36.08
2019-03-31T07:32:34.372Z,36.32
2019-03-31T07:35:03.043Z,36.31
2019-03-31T07:37:31.441Z,36.16
2019-03-31T07:40:00.194Z,36.52
2019-03-31T07:42:29.203Z,35.88
2019-03-31T07:44:57.751Z,36.30
2019-03-31T07:47:27.156Z,35.95
2019-03-31T07:49:55.773Z,35.75
2019-03-31T07:52:24.446Z,35.44
2019-03-31T07:54:54.377Z,36.33
2019-03-31T07:57:22.974Z,36.26
2019-03-31T07:59:51.462Z,36.37
2019-03-31T08:02:19.871Z,35.63
2019-03-31T08:04:48.284Z,36.35
2019-03-31T08:07:16.741Z,36.18
2019-03-31T08:09:45.292Z,36.08
2019-03-31T08:12:13.770Z,35.54
2019-03-31T08:14:42.205Z,35.82
2019-03-31T08:17:10.690Z,35.64
2019-03-31T08:19:39.144Z,35.38
2019-03-31T08:22:07.596Z,34.83
2019-03-31T08:24:54.134Z,34.95
2019-03-31T08:27:22.667Z,35.34
2019-03-31T08:30:00.102Z,35.45
2019-03-31T08:32:21.305Z,34.33
2019-03-31T08:34:49.720Z,35.86
2019-03-31T08:37:18.119Z,35.80
2019-03-31T08:39:46.522Z,35.13
2019-03-31T08:42:14.923Z,34.34
2019-03-31T08:44:45.056Z,34.40
2019-03-31T08:47:13.519Z,35.42
2019-03-31T08:49:41.944Z,35.02
2019-03-31T08:52:10.372Z,34.80
2019-03-31T08:54:38.772Z,34.80
2019-03-31T08:57:07.163Z,35.55
2019-03-31T08:59:35.568Z,35.54
2019-03-31T09:02:21.825Z,34.36
2019-03-31T09:04:50.252Z,34.73
2019-03-31T09:07:18.713Z,34.88
2019-03-31T09:09:47.216Z,35.45
2019-03-31T09:12:15.628Z,34.89
2019-03-31T09:14:44.019Z,35.38
2019-03-31T09:17:12.469Z,35.09
2019-03-31T09:19:40.878Z,34.97
2019-03-31T09:22:09.305Z,35.45
2019-03-31T09:24:37.715Z,35.48
2019-03-31T09:27:06.169Z,34.64
2019-03-31T09:29:34.661Z,35.14
2019-03-31T09:32:03.129Z,35.38
2019-03-31T09:34:31.544Z,35.51
2019-03-31T09:37:00.045Z,35.38
2019-03-31T09:39:28.449Z,34.76
2019-03-31T09:41:56.956Z,34.65
2019-03-31T09:44:25.364Z,35.05
2019-03-31T09:46:53.857Z,34.63
2019-03-31T09:49:22.355Z,35.31
2019-03-31T09:51:50.740Z,34.97
2019-03-31T09:54:19.188Z,34.85
2019-03-31T09:56:47.599Z,35.17
2019-03-31T09:59:16.036Z,35.23
2019-03-31T10:01:44.422Z,34.40
2019-03-31T10:04:12.823Z,35.23
2019-03-31T10:06:41.267Z,34.72
2019-03-31T10:09:09.667Z,34.66
2019-03-31T10:11:38.092Z,34.94
2019-03-31T10:14:06.553Z,35.18
2019-03-31T10:16:35.000Z,35.12
2019-03-31T10:19:03.383Z,34.72
2019-03-31T10:21:31.905Z,34.91
2019-03-31T10:24:00.282Z,34.99
2019-03-31T10:26:32.183Z,34.96
2019-03-31T10:28:58.755Z,34.83
2019-03-31T10:31:27.164Z,34.71
2019-03-31T10:33:55.567Z,34.49
2019-03-31T10:36:23.972Z,35.03
2019-03-31T10:38:52.446Z,34.63
2019-03-31T10:41:20.844Z,35.12
2019-03-31T10:43:49.239Z,34.80
2019-03-31T10:46:17.728Z,34.81
2019-03-31T10:48:46.226Z,33.98
2019-03-31T10:51:14.653Z,34.69
2019-03-31T10:53:43.044Z,35.35
2019-03-31T10:56:11.464Z,35.41
2019-03-31T10:58:39.868Z,34.82
2019-03-31T11:01:08.293Z,35.21
2019-03-31T11:03:36.873Z,35.06
2019-03-31T11:06:05.304Z,34.02
2019-03-31T11:08:33.735Z,34.58
2019-03-31T11:11:02.152Z,35.11
2019-03-31T11:13:30.585Z,34.58
2019-03-31T11:15:58.986Z,34.96
2019-03-31T11:18:27.431Z,32.85
2019-03-31T11:20:57.132Z,35.12
2019-03-31T11:23:27.501Z,34.95
2019-03-31T11:25:55.892Z,34.91
2019-03-31T11:28:24.282Z,35.12
2019-03-31T11:30:52.691Z,35.16
2019-03-31T11:33:21.192Z,34.81
2019-03-31T11:35:49.599Z,31.07
2019-03-31T11:38:18.000Z,32.99
2019-03-31T11:40:46.411Z,31.29
2019-03-31T11:43:14.812Z,31.23
2019-03-31T11:45:43.226Z,30.03
2019-03-31T11:48:11.626Z,32.77
2019-03-31T11:50:40.133Z,33.67
2019-03-31T11:53:08.570Z,34.44
2019-03-31T11:55:36.972Z,34.99
2019-03-31T11:58:05.382Z,34.83
2019-03-31T12:00:36.112Z,33.99
2019-03-31T12:03:04.512Z,34.35
2019-03-31T12:05:32.943Z,32.46
2019-03-31T12:08:01.348Z,33.62
2019-03-31T12:10:29.748Z,34.28
2019-03-31T12:12:58.147Z,34.35
2019-03-31T12:15:26.548Z,34.40
2019-03-31T12:17:54.985Z,33.75
2019-03-31T12:20:23.482Z,32.54
2019-03-31T12:22:51.889Z,34.50
2019-03-31T12:25:20.303Z,34.40
2019-03-31T12:27:48.706Z,34.97
2019-03-31T12:30:18.683Z,32.79
2019-03-31T12:32:47.093Z,34.58
2019-03-31T12:35:15.548Z,35.05
2019-03-31T12:37:43.984Z,34.94
2019-03-31T12:40:15.872Z,35.28
2019-03-31T12:42:44.285Z,35.45
2019-03-31T12:45:12.685Z,35.20
2019-03-31T12:47:41.075Z,35.29
2019-03-31T12:50:09.484Z,35.01
2019-03-31T12:52:46.466Z,35.28
2019-03-31T12:55:07.956Z,35.14
2019-03-31T12:57:36.391Z,35.42
2019-03-31T13:00:04.917Z,35.13
2019-03-31T13:02:33.320Z,35.30
2019-03-31T13:05:01.753Z,35.30
2019-03-31T13:07:30.139Z,35.39
2019-03-31T13:09:58.565Z,35.17
2019-03-31T13:12:27.047Z,35.21
2019-03-31T13:14:55.442Z,35.21
2019-03-31T13:17:23.851Z,35.31
2019-03-31T13:20:11.225Z,35.40
2019-03-31T13:22:39.635Z,35.42
2019-03-31T13:25:08.048Z,35.35
2019-03-31T13:27:36.482Z,34.14
2019-03-31T13:30:05.100Z,33.60
2019-03-31T13:35:20.929Z,32.48
2019-03-31T13:37:49.383Z,35.25
2019-03-31T13:42:51.528Z,34.51
2019-03-31T13:45:19.952Z,32.49
2019-03-31T13:50:35.780Z,33.64
2019-03-31T13:53:04.213Z,32.00
2019-03-31T13:55:32.649Z,33.29
2019-03-31T13:58:02.906Z,32.75
2019-03-31T14:00:33.976Z,32.16
2019-03-31T14:03:02.393Z,32.79
2019-03-31T14:05:30.842Z,32.94
2019-03-31T14:07:59.311Z,33.36
2019-03-31T14:10:27.756Z,32.23
2019-03-31T14:15:31.553Z,33.39
2019-03-31T14:18:00.054Z,32.55
2019-03-31T14:20:28.595Z,33.19
2019-03-31T14:22:57.040Z,33.97
2019-03-31T14:25:25.574Z,33.19
2019-03-31T14:27:54.005Z,33.47
2019-03-31T14:30:22.491Z,32.47
2019-03-31T14:32:50.968Z,33.68
2019-03-31T14:35:19.434Z,33.95
2019-03-31T14:37:47.958Z,33.35
2019-03-31T14:40:35.355Z,34.59
2019-03-31T14:43:03.796Z,33.32
2019-03-31T14:45:32.940Z,32.69
2019-03-31T14:48:01.698Z,32.82
2019-03-31T14:50:48.992Z,32.48
2019-03-31T14:53:17.495Z,31.66
2019-03-31T14:55:45.990Z,34.58
2019-03-31T14:58:14.507Z,34.05
2019-03-31T15:01:01.810Z,33.90
2019-03-31T15:03:30.224Z,34.28
2019-03-31T15:05:58.728Z,34.03
2019-03-31T15:08:27.225Z,34.95
2019-03-31T15:10:55.706Z,34.57
2019-03-31T15:13:42.915Z,34.76
2019-03-31T15:16:30.238Z,33.85
2019-03-31T15:21:46.144Z,32.40
2019-03-31T15:24:14.560Z,34.20
2019-03-31T15:26:43.036Z,32.40
2019-03-31T15:31:45.472Z,33.35
2019-03-31T15:34:13.914Z,31.69
2019-03-31T15:36:42.328Z,32.84
2019-03-31T15:39:10.752Z,32.74
2019-03-31T15:41:57.969Z,32.56
2019-03-31T15:44:26.403Z,32.43
2019-03-31T15:47:13.613Z,32.28
2019-03-31T15:49:42.134Z,31.13
2019-03-31T15:52:10.573Z,32.23
2019-03-31T15:54:39.073Z,32.70
2019-03-31T15:57:07.465Z,32.42
2019-03-31T15:59:35.886Z,32.36
2019-03-31T16:02:04.301Z,32.37
2019-03-31T16:04:32.749Z,32.53
2019-03-31T16:07:01.152Z,32.36
2019-03-31T16:09:29.527Z,32.13
2019-03-31T16:11:57.628Z,33.52
2019-03-31T16:14:25.761Z,32.73
2019-03-31T16:16:53.979Z,32.33
2019-03-31T16:19:41.225Z,32.04
2019-03-31T16:22:09.401Z,31.33
2019-03-31T16:24:40.275Z,32.39
2019-03-31T16:27:08.408Z,32.13
2019-03-31T16:29:36.590Z,32.68
2019-03-31T16:32:04.748Z,31.52
2019-03-31T16:34:32.876Z,33.33
2019-03-31T16:37:01.032Z,32.03
2019-03-31T16:39:37.520Z,33.09
2019-03-31T16:41:59.000Z,32.11
2019-03-31T16:44:27.119Z,32.90
2019-03-31T16:46:55.388Z,32.36
2019-03-31T16:49:23.531Z,32.52
2019-03-31T16:52:10.748Z,32.49
2019-03-31T16:54:38.889Z,32.31
2019-03-31T16:57:07.033Z,33.24
2019-03-31T16:59:54.073Z,34.13
2019-03-31T17:02:22.309Z,34.57
2019-03-31T17:04:50.455Z,33.06
2019-03-31T17:07:18.611Z,33.33
2019-03-31T17:09:51.647Z,33.65
2019-03-31T17:12:16.649Z,33.15
2019-03-31T17:14:44.769Z,32.57
2019-03-31T17:17:12.903Z,32.92
2019-03-31T17:19:41.104Z,33.11
2019-03-31T17:22:09.259Z,33.26
2019-03-31T17:24:37.479Z,32.91
2019-03-31T17:27:05.599Z,32.29
2019-03-31T17:29:33.742Z,32.46
2019-03-31T17:32:01.898Z,32.95
2019-03-31T17:34:30.029Z,33.38
2019-03-31T17:37:17.232Z,33.06
2019-03-31T17:39:45.384Z,32.94
2019-03-31T17:42:13.535Z,32.83
2019-03-31T17:44:41.665Z,32.20
2019-03-31T17:47:28.726Z,32.62
2019-03-31T17:49:56.871Z,33.17
2019-03-31T17:52:25.048Z,32.06
2019-03-31T17:54:53.173Z,33.44
2019-03-31T17:57:21.408Z,32.71
2019-03-31T17:59:49.562Z,31.99
2019-03-31T18:02:36.793Z,33.12
2019-03-31T18:05:05.729Z,32.92
2019-03-31T18:07:33.873Z,33.58
2019-03-31T18:10:02.009Z,34.41
2019-03-31T18:12:30.209Z,33.96
2019-03-31T18:14:58.359Z,32.82
2019-03-31T18:17:26.566Z,34.27
2019-03-31T18:19:54.743Z,33.83
2019-03-31T18:22:22.902Z,34.32
2019-03-31T18:25:10.398Z,33.64
2019-03-31T18:27:57.468Z,33.70
2019-03-31T18:30:25.592Z,34.43
2019-03-31T18:32:53.777Z,33.89
2019-03-31T18:35:21.934Z,34.06
2019-03-31T18:37:50.047Z,34.04
2019-03-31T18:40:37.288Z,33.85
2019-03-31T18:45:52.672Z,31.38
2019-03-31T18:48:20.795Z,32.17
2019-03-31T18:50:49.036Z,34.29
2019-03-31T18:53:29.901Z,34.44
2019-03-31T18:56:17.017Z,33.70
2019-03-31T18:59:04.029Z,33.99
2019-03-31T19:01:51.109Z,34.46
2019-03-31T19:04:38.201Z,34.50
2019-03-31T19:07:25.229Z,34.86
2019-03-31T19:10:24.038Z,34.39
2019-03-31T19:13:07.747Z,33.51
2019-03-31T19:15:53.531Z,34.22
2019-03-31T19:18:43.826Z,34.72
2019-03-31T19:21:35.241Z,34.28
2019-03-31T19:24:11.339Z,34.04
2019-03-31T19:26:57.073Z,33.71
2019-03-31T19:29:44.123Z,34.51
2019-03-31T19:32:46.385Z,33.98
2019-03-31T19:35:28.470Z,34.90
2019-03-31T19:38:18.379Z,33.75
2019-03-31T19:41:13.121Z,33.56
2019-03-31T19:44:03.332Z,34.35
2019-03-31T19:46:42.026Z,34.69
2019-03-31T19:49:47.575Z,33.61
2019-03-31T19:52:34.688Z,34.46
2019-03-31T19:55:16.835Z,34.31
2019-03-31T19:58:09.758Z,34.44
2019-03-31T20:01:15.004Z,34.64
2019-03-31T20:03:59.402Z,33.86
2019-03-31T20:06:44.516Z,34.30
2019-03-31T20:09:31.688Z,34.36
2019-03-31T20:12:15.942Z,34.52
2019-03-31T20:15:01.668Z,34.69
2019-03-31T20:18:00.990Z,34.50
2019-03-31T20:20:48.094Z,34.58
2019-03-31T20:23:26.214Z,34.58
2019-03-31T20:26:16.134Z,34.81
2019-03-31T20:29:01.855Z,34.56
2019-03-31T20:31:47.756Z,34.73
2019-03-31T20:34:26.891Z,34.84
2019-03-31T20:37:14.180Z,34.80
2019-03-31T20:40:00.406Z,33.99
2019-03-31T20:42:55.660Z,35.09
2019-03-31T20:45:23.810Z,34.38
2019-03-31T20:47:51.942Z,34.94
2019-03-31T20:50:20.224Z,34.92
2019-03-31T20:52:48.389Z,34.82
2019-03-31T20:55:17.069Z,34.69
2019-03-31T20:57:45.206Z,34.74
2019-03-31T21:00:13.385Z,35.03
2019-03-31T21:02:41.625Z,34.01
2019-03-31T21:05:09.786Z,34.70
2019-03-31T21:07:37.944Z,34.95
2019-03-31T21:10:06.418Z,34.97
2019-03-31T21:12:34.667Z,35.11
2019-03-31T21:15:02.877Z,35.08
2019-03-31T21:17:31.043Z,34.82
2019-03-31T21:19:59.270Z,35.09
2019-03-31T21:22:27.564Z,34.88
2019-03-31T21:24:55.846Z,34.67
2019-03-31T21:27:24.044Z,34.66
2019-03-31T21:29:52.169Z,35.12
2019-03-31T21:32:20.467Z,35.06
2019-03-31T21:34:48.584Z,34.71
2019-03-31T21:37:16.781Z,34.91
2019-03-31T21:39:44.907Z,34.78
2019-03-31T21:42:13.165Z,34.61
2019-03-31T21:44:41.334Z,35.25
2019-03-31T21:47:09.485Z,34.62
2019-03-31T21:49:37.651Z,35.28
2019-03-31T21:52:05.795Z,34.36
2019-03-31T21:54:33.955Z,34.57
2019-03-31T21:57:02.440Z,34.01
2019-03-31T21:59:33.386Z,34.96
2019-03-31T22:02:00.389Z,35.17
2019-03-31T22:04:28.571Z,35.18
2019-03-31T22:06:56.773Z,35.12
2019-03-31T22:09:24.957Z,35.09
2019-03-31T22:11:53.159Z,35.13
2019-03-31T22:14:21.290Z,34.44
2019-03-31T22:16:49.465Z,34.72
2019-03-31T22:19:17.584Z,34.42
2019-03-31T22:21:45.772Z,35.45
2019-03-31T22:24:13.890Z,35.33
2019-03-31T22:26:42.051Z,35.58
2019-03-31T22:29:10.232Z,35.45
2019-03-31T22:31:38.398Z,34.97
2019-03-31T22:34:06.533Z,35.20
2019-03-31T22:36:34.725Z,34.98
2019-03-31T22:39:04.093Z,34.94
2019-03-31T22:41:32.267Z,35.52
2019-03-31T22:44:00.416Z,34.98
2019-03-31T22:46:28.579Z,35.51
2019-03-31T22:48:56.732Z,35.37
2019-03-31T22:51:24.890Z,34.56
2019-03-31T22:53:53.060Z,35.67
2019-03-31T22:56:21.182Z,35.64
2019-03-31T22:58:49.369Z,35.52
2019-03-31T23:01:17.512Z,35.65
2019-03-31T23:03:45.664Z,35.29
2019-03-31T23:06:13.802Z,35.09
2019-03-31T23:08:41.956Z,35.75
2019-03-31T23:11:10.197Z,35.67
2019-03-31T23:13:38.332Z,35.39
2019-03-31T23:16:06.490Z,35.69
2019-03-31T23:18:34.647Z,35.24
2019-03-31T23:21:02.784Z,34.62
2019-03-31T23:23:30.915Z,35.38
2019-03-31T23:25:59.118Z,35.78
2019-03-31T23:28:27.259Z,35.20
2019-03-31T23:30:55.452Z,35.42
2019-03-31T23:33:23.587Z,35.49
2019-03-31T23:35:51.844Z,35.73
2019-03-31T23:38:19.985Z,35.73
2019-03-31T23:40:48.130Z,35.95
2019-03-31T23:43:16.268Z,35.31
2019-03-31T23:45:44.409Z,35.51
2019-03-31T23:48:12.556Z,35.18
2019-03-31T23:50:40.737Z,35.02
2019-03-31T23:53:08.896Z,35.00
2019-03-31T23:55:37.042Z,35.33
2019-03-31T23:58:05.195Z,35.69
